Time;durP1;ratioP1;P1;durP2;ratioP2;P2;SDS_P1;SDS_P2;PMS_P1;PMS_P2;Temp;Humidity;BMP_temperature;BMP_pressure;BME280_temperature;BME280_humidity;BME280_pressure;Samples;Min_cycle;Max_cycle;Signal;HPM_P1;HPM_P2
2023/03/31 00:01:28;;;;;;;32.47;5.03;;;10.20;99.90;;;;;;5072625;28;20040;-73
2023/03/31 00:04:03;;;;;;;44.97;6.03;;;10.30;99.90;;;;;;5072743;28;20055;-73
2023/03/31 00:06:31;;;;;;;48.85;5.32;;;10.10;99.90;;;;;;5072033;28;20056;-78
2023/03/31 00:09:00;;;;;;;30.15;5.25;;;10.30;99.90;;;;;;5054363;28;20055;-76
2023/03/31 00:11:27;;;;;;;36.15;5.55;;;10.10;99.90;;;;;;5053833;28;20067;-75
2023/03/31 00:13:53;;;;;;;39.88;6.10;;;10.10;99.90;;;;;;5071935;28;20084;-76
2023/03/31 00:16:18;;;;;;;41.47;5.95;;;10.10;99.90;;;;;;5071793;28;20076;-73
2023/03/31 00:18:46;;;;;;;30.45;4.40;;;10.20;99.90;;;;;;5071778;28;20053;-73
2023/03/31 00:21:23;;;;;;;33.30;4.63;;;10.10;99.90;;;;;;5070733;28;20044;-74
2023/03/31 00:24:05;;;;;;;35.40;4.75;;;10.10;99.90;;;;;;5054075;28;20049;-73
2023/03/31 00:26:33;;;;;;;50.50;5.28;;;10.00;99.90;;;;;;5071250;28;20040;-74
2023/03/31 00:28:59;;;;;;;38.40;5.93;;;10.00;99.90;;;;;;5071880;28;20717;-74
2023/03/31 00:31:26;;;;;;;29.58;5.47;;;10.50;99.90;;;;;;5072021;28;20130;-73
2023/03/31 00:33:52;;;;;;;33.75;5.63;;;10.30;99.90;;;;;;5048786;28;20114;-76
2023/03/31 00:36:20;;;;;;;27.20;4.88;;;10.00;99.90;;;;;;5033616;28;20408;-73
2023/03/31 00:38:50;;;;;;;33.90;5.70;;;10.00;99.90;;;;;;5033636;28;20402;-74
2023/03/31 00:41:16;;;;;;;26.25;4.53;;;9.90;99.90;;;;;;5051147;28;20049;-74
2023/03/31 00:44:00;;;;;;;29.90;4.97;;;9.80;99.90;;;;;;5051613;28;20095;-76
2023/03/31 00:46:32;;;;;;;35.83;5.03;;;9.80;99.90;;;;;;5033461;28;20814;-74
2023/03/31 00:48:58;;;;;;;32.35;4.85;;;10.10;99.90;;;;;;5033160;28;20056;-75
2023/03/31 00:51:28;;;;;;;41.13;6.13;;;10.10;99.90;;;;;;5051108;28;20053;-74
2023/03/31 00:53:59;;;;;;;34.50;4.78;;;9.70;99.90;;;;;;5033008;28;20538;-73
2023/03/31 00:56:27;;;;;;;33.65;4.72;;;9.70;99.90;;;;;;5051177;28;20049;-73
2023/03/31 00:58:56;;;;;;;34.03;5.43;;;9.80;99.90;;;;;;5051295;28;20048;-73
2023/03/31 01:01:23;;;;;;;36.00;5.40;;;9.60;99.90;;;;;;5032116;28;20400;-75
2023/03/31 01:03:51;;;;;;;40.95;5.50;;;9.60;99.90;;;;;;5051101;28;20048;-73
2023/03/31 01:06:18;;;;;;;32.05;5.18;;;9.60;99.90;;;;;;5051039;28;20049;-75
2023/03/31 01:08:46;;;;;;;32.15;4.78;;;9.80;99.90;;;;;;5051028;28;20053;-75
2023/03/31 01:11:15;;;;;;;24.73;4.20;;;9.50;99.90;;;;;;5050570;28;20106;-74
2023/03/31 01:13:42;;;;;;;34.97;5.22;;;9.50;99.90;;;;;;5051114;28;20403;-75
2023/03/31 01:16:08;;;;;;;31.20;5.70;;;9.40;99.90;;;;;;5050662;28;20490;-74
2023/03/31 01:18:34;;;;;;;27.67;5.00;;;9.40;99.90;;;;;;5051306;28;20813;-74
2023/03/31 01:21:19;;;;;;;34.40;5.00;;;9.40;99.90;;;;;;5032402;28;20049;-73
2023/03/31 01:24:30;;;;;;;33.28;4.53;;;9.40;99.90;;;;;;5050811;28;20080;-74
2023/03/31 01:27:32;;;;;;;25.95;4.85;;;9.30;99.90;;;;;;5050484;28;20071;-78
2023/03/31 01:30:30;;;;;;;31.50;4.75;;;9.30;99.90;;;;;;5050460;28;20535;-74
2023/03/31 01:33:14;;;;;;;26.85;4.00;;;9.30;99.90;;;;;;5031551;28;20107;-74
2023/03/31 01:36:05;;;;;;;27.58;4.28;;;9.20;99.90;;;;;;5070007;28;20437;-73
2023/03/31 01:39:00;;;;;;;31.10;4.18;;;9.20;99.90;;;;;;5052599;28;20048;-73
2023/03/31 01:41:50;;;;;;;31.33;4.40;;;9.20;99.90;;;;;;5052758;28;20660;-75
2023/03/31 01:44:45;;;;;;;27.08;4.45;;;9.10;99.90;;;;;;5070000;28;20047;-74
2023/03/31 01:47:46;;;;;;;32.25;4.35;;;9.10;99.90;;;;;;5070521;28;20686;-74
2023/03/31 01:50:32;;;;;;;28.25;4.95;;;9.10;99.90;;;;;;4988353;28;20046;-74
2023/03/31 01:53:14;;;;;;;34.25;4.35;;;9.10;99.90;;;;;;4988119;28;20050;-73
2023/03/31 01:55:51;;;;;;;27.85;4.30;;;9.10;99.90;;;;;;4988303;28;20050;-75
2023/03/31 01:58:35;;;;;;;27.25;4.70;;;9.10;99.90;;;;;;4987618;28;20050;-74
2023/03/31 02:01:16;;;;;;;38.03;4.68;;;9.10;99.90;;;;;;4970784;28;20077;-74
2023/03/31 02:03:50;;;;;;;26.92;3.75;;;9.00;99.90;;;;;;4972180;28;20057;-74
2023/03/31 02:06:23;;;;;;;32.17;4.13;;;9.50;99.90;;;;;;4988200;28;20635;-73
2023/03/31 02:08:54;;;;;;;24.08;3.67;;;9.00;99.90;;;;;;4988695;28;20057;-75
2023/03/31 02:11:21;;;;;;;30.05;4.68;;;9.00;99.90;;;;;;4987104;28;20129;-74
2023/03/31 02:13:51;;;;;;;24.50;3.88;;;9.20;99.90;;;;;;4987586;28;20061;-73
2023/03/31 02:16:23;;;;;;;23.65;4.28;;;9.00;99.90;;;;;;4971619;28;20050;-73
2023/03/31 02:18:52;;;;;;;23.52;4.00;;;9.00;99.90;;;;;;4988110;28;20125;-75
2023/03/31 02:21:21;;;;;;;31.23;3.60;;;9.00;99.90;;;;;;4987235;28;20057;-73
2023/03/31 02:23:50;;;;;;;29.10;4.95;;;9.30;99.90;;;;;;4971372;28;20042;-75
2023/03/31 02:26:23;;;;;;;29.90;4.70;;;9.10;99.90;;;;;;5003108;28;20064;-74
2023/03/31 02:28:49;;;;;;;20.85;3.97;;;9.10;99.90;;;;;;5069516;28;20056;-74
2023/03/31 02:31:33;;;;;;;20.83;3.10;;;9.10;99.90;;;;;;5050976;28;20090;-75
2023/03/31 02:34:00;;;;;;;25.58;4.65;;;9.10;99.90;;;;;;5042791;28;20057;-74
2023/03/31 02:36:25;;;;;;;26.15;3.35;;;9.10;99.90;;;;;;5015392;28;20076;-74
2023/03/31 02:38:58;;;;;;;29.65;3.80;;;9.10;99.90;;;;;;5047041;28;20045;-73
2023/03/31 02:41:23;;;;;;;26.00;4.75;;;9.10;99.90;;;;;;5033818;28;20518;-73
2023/03/31 02:43:49;;;;;;;29.63;4.57;;;9.20;99.90;;;;;;5051336;28;20048;-73
2023/03/31 02:46:15;;;;;;;25.50;4.07;;;9.20;99.90;;;;;;5055891;28;20211;-75
2023/03/31 02:48:44;;;;;;;26.13;3.85;;;9.30;99.90;;;;;;5073800;28;20491;-75
2023/03/31 02:51:58;;;;;;;30.38;3.55;;;9.20;99.90;;;;;;5073719;28;20040;-74
2023/03/31 02:54:47;;;;;;;33.85;4.10;;;9.20;99.90;;;;;;4955846;28;20074;-74
2023/03/31 02:57:38;;;;;;;25.90;3.65;;;9.20;99.90;;;;;;4948635;28;20189;-73
2023/03/31 03:00:09;;;;;;;24.40;4.05;;;9.20;99.90;;;;;;4955666;28;20130;-74
2023/03/31 03:02:53;;;;;;;24.65;4.25;;;9.20;99.90;;;;;;4973569;28;20141;-74
2023/03/31 03:05:33;;;;;;;26.17;3.50;;;9.20;99.90;;;;;;4991518;28;20054;-74
2023/03/31 03:08:17;;;;;;;20.65;3.63;;;9.30;99.90;;;;;;4991543;28;20086;-73
2023/03/31 03:10:54;;;;;;;22.15;3.50;;;9.20;99.90;;;;;;4974936;28;20413;-74
2023/03/31 03:13:28;;;;;;;21.17;3.83;;;9.30;99.90;;;;;;4990996;28;20053;-74
2023/03/31 03:16:08;;;;;;;25.10;3.42;;;9.30;99.90;;;;;;4991091;28;20053;-74
2023/03/31 03:18:34;;;;;;;24.80;4.90;;;9.30;99.90;;;;;;4991294;28;20497;-75
2023/03/31 03:20:59;;;;;;;23.35;4.68;;;9.30;99.90;;;;;;4974504;28;20060;-74
2023/03/31 03:23:25;;;;;;;18.52;3.45;;;9.30;99.90;;;;;;4990477;28;20444;-75
2023/03/31 03:25:51;;;;;;;24.27;3.53;;;9.20;99.90;;;;;;4974870;28;20561;-74
2023/03/31 03:28:16;;;;;;;22.05;3.58;;;9.30;99.90;;;;;;4975006;28;20077;-74
2023/03/31 03:30:42;;;;;;;25.98;3.45;;;9.20;99.90;;;;;;5017751;28;20585;-74
2023/03/31 03:33:08;;;;;;;20.30;3.13;;;9.30;99.90;;;;;;5051447;28;20500;-74
2023/03/31 03:35:35;;;;;;;20.35;3.65;;;9.20;99.90;;;;;;5070756;28;20061;-73
2023/03/31 03:38:00;;;;;;;18.98;2.97;;;9.20;99.90;;;;;;5072760;28;20045;-74
2023/03/31 03:40:26;;;;;;;25.00;3.30;;;9.20;99.90;;;;;;5072422;28;20117;-74
2023/03/31 03:42:51;;;;;;;16.13;3.30;;;9.20;99.90;;;;;;5054632;28;20553;-75
2023/03/31 03:45:17;;;;;;;23.35;3.90;;;9.20;99.90;;;;;;5071878;28;20173;-74
2023/03/31 03:47:43;;;;;;;17.92;3.08;;;9.20;99.90;;;;;;5054273;28;20041;-75
2023/03/31 03:50:09;;;;;;;21.25;3.28;;;9.50;99.90;;;;;;5072596;28;20476;-74
2023/03/31 03:52:35;;;;;;;17.92;3.15;;;9.30;99.90;;;;;;5054270;28;20064;-74
2023/03/31 03:55:00;;;;;;;18.08;3.25;;;9.30;99.90;;;;;;5054132;28;20052;-73
2023/03/31 03:57:26;;;;;;;17.77;2.97;;;9.30;99.90;;;;;;5054462;28;20121;-73
2023/03/31 03:59:52;;;;;;;20.38;3.42;;;9.30;99.90;;;;;;5072231;28;21699;-75
2023/03/31 04:02:18;;;;;;;20.08;3.25;;;9.40;99.90;;;;;;5054284;28;20056;-74
2023/03/31 04:04:43;;;;;;;14.75;3.50;;;9.60;99.90;;;;;;5054242;28;20143;-75
2023/03/31 04:07:09;;;;;;;16.52;3.38;;;9.50;99.90;;;;;;5071978;28;20044;-74
2023/03/31 04:09:35;;;;;;;22.55;3.90;;;9.40;99.90;;;;;;5054214;28;20044;-75
2023/03/31 04:12:00;;;;;;;18.13;3.50;;;9.70;99.90;;;;;;5054267;28;20047;-74
2023/03/31 04:14:26;;;;;;;18.60;4.22;;;9.70;99.90;;;;;;5054246;28;20131;-75
2023/03/31 04:16:55;;;;;;;19.98;3.80;;;9.50;99.90;;;;;;5071592;28;20037;-74
2023/03/31 04:19:24;;;;;;;15.57;4.20;;;9.40;99.90;;;;;;5072466;28;20060;-74
2023/03/31 04:21:57;;;;;;;15.77;4.05;;;9.50;99.90;;;;;;5071678;28;20060;-75
2023/03/31 04:24:29;;;;;;;14.05;3.85;;;9.50;99.90;;;;;;5072136;28;20048;-75
2023/03/31 04:26:56;;;;;;;15.85;4.30;;;9.50;99.90;;;;;;5053631;28;20064;-77
2023/03/31 04:29:25;;;;;;;18.00;4.93;;;9.60;99.90;;;;;;5053730;28;20049;-75
2023/03/31 04:31:53;;;;;;;11.52;4.80;;;9.50;99.90;;;;;;5071859;28;20052;-76
2023/03/31 04:34:21;;;;;;;11.05;3.97;;;9.60;99.90;;;;;;5053517;28;20462;-75
2023/03/31 04:36:46;;;;;;;16.83;5.15;;;9.50;99.90;;;;;;5053615;28;20076;-75
2023/03/31 04:39:14;;;;;;;15.13;5.07;;;9.80;99.90;;;;;;5071186;28;20129;-73
2023/03/31 04:41:39;;;;;;;16.27;5.10;;;9.50;99.90;;;;;;5053702;28;20048;-74
2023/03/31 04:44:05;;;;;;;19.20;5.03;;;9.50;99.90;;;;;;5071500;28;20055;-77
2023/03/31 04:46:33;;;;;;;18.75;5.40;;;9.50;99.90;;;;;;5071166;28;20044;-73
2023/03/31 04:48:59;;;;;;;22.13;5.35;;;9.90;99.90;;;;;;5071019;28;20519;-74
2023/03/31 04:51:25;;;;;;;16.90;5.75;;;9.50;99.90;;;;;;5052593;28;20060;-75
2023/03/31 04:53:51;;;;;;;13.77;5.63;;;9.60;99.90;;;;;;5053386;28;20052;-77
2023/03/31 04:56:17;;;;;;;20.10;5.07;;;9.50;99.90;;;;;;5036079;28;20049;-75
2023/03/31 04:58:43;;;;;;;18.42;5.47;;;9.60;99.90;;;;;;5052890;28;20044;-75
2023/03/31 05:01:12;;;;;;;17.25;5.95;;;9.50;99.90;;;;;;5071269;28;20045;-75
2023/03/31 05:03:38;;;;;;;14.85;5.47;;;9.70;99.90;;;;;;5070904;28;20048;-75
2023/03/31 05:06:04;;;;;;;16.83;5.93;;;9.70;99.90;;;;;;5053148;28;20067;-75
2023/03/31 05:08:30;;;;;;;16.65;5.82;;;9.60;99.90;;;;;;5070528;28;20051;-74
2023/03/31 05:10:56;;;;;;;11.73;5.68;;;9.60;99.90;;;;;;5052598;28;20052;-74
2023/03/31 05:13:22;;;;;;;14.38;5.45;;;9.60;99.90;;;;;;5071078;28;20106;-75
2023/03/31 05:15:50;;;;;;;19.95;5.65;;;9.60;99.90;;;;;;5070731;28;20041;-75
2023/03/31 05:18:16;;;;;;;17.63;6.53;;;9.70;99.90;;;;;;5070742;28;20052;-76
2023/03/31 05:20:42;;;;;;;15.07;5.45;;;9.60;99.90;;;;;;5052517;28;20395;-74
2023/03/31 05:23:08;;;;;;;14.05;5.18;;;9.60;99.90;;;;;;5071029;28;20040;-76
2023/03/31 05:25:33;;;;;;;17.83;5.60;;;9.60;99.90;;;;;;5070901;28;20258;-74
2023/03/31 05:28:00;;;;;;;14.32;5.78;;;9.70;99.90;;;;;;5070871;28;20048;-74
2023/03/31 05:30:26;;;;;;;12.52;4.80;;;9.60;99.90;;;;;;5070637;28;20083;-74
2023/03/31 05:32:52;;;;;;;15.90;5.57;;;9.60;99.90;;;;;;5070181;28;20052;-76
2023/03/31 05:35:18;;;;;;;17.48;5.20;;;9.70;99.90;;;;;;5070252;28;20454;-75
2023/03/31 05:37:44;;;;;;;16.25;4.82;;;9.70;99.90;;;;;;5070788;28;20049;-74
2023/03/31 05:40:10;;;;;;;15.63;4.60;;;9.60;99.90;;;;;;5035859;28;20051;-75
2023/03/31 05:42:37;;;;;;;14.65;4.82;;;9.60;99.90;;;;;;5052843;28;20056;-76
2023/03/31 05:45:03;;;;;;;14.13;4.80;;;9.70;99.90;;;;;;5070378;28;20048;-74
2023/03/31 05:47:29;;;;;;;16.45;4.97;;;9.70;99.90;;;;;;5070289;28;20480;-74
2023/03/31 05:49:55;;;;;;;16.30;4.65;;;9.70;99.90;;;;;;5052422;28;20059;-75
2023/03/31 05:52:20;;;;;;;13.88;4.68;;;10.00;99.90;;;;;;5070643;28;20117;-74
2023/03/31 05:54:46;;;;;;;9.77;4.15;;;9.70;99.90;;;;;;5070542;28;20049;-75
2023/03/31 05:57:12;;;;;;;17.52;4.70;;;9.70;99.90;;;;;;5070347;28;20059;-74
2023/03/31 05:59:39;;;;;;;13.73;3.88;;;9.70;99.90;;;;;;5070777;28;20041;-74
2023/03/31 06:02:06;;;;;;;8.15;3.45;;;9.70;99.90;;;;;;5052667;28;20131;-75
2023/03/31 06:04:31;;;;;;;17.88;4.10;;;9.70;99.90;;;;;;5070214;28;20040;-75
2023/03/31 06:06:58;;;;;;;18.48;3.85;;;9.80;99.90;;;;;;5070066;28;20056;-74
2023/03/31 06:09:24;;;;;;;10.45;3.85;;;10.10;99.90;;;;;;5070268;28;20423;-74
2023/03/31 06:11:50;;;;;;;11.98;3.60;;;9.70;99.90;;;;;;5070459;28;20403;-74
2023/03/31 06:14:15;;;;;;;12.55;3.67;;;9.70;99.90;;;;;;5051950;28;20044;-74
2023/03/31 06:16:41;;;;;;;12.40;3.67;;;9.70;99.90;;;;;;5070644;28;20040;-75
2023/03/31 06:19:07;;;;;;;14.82;3.80;;;9.70;99.90;;;;;;5068803;28;20054;-75
2023/03/31 06:21:33;;;;;;;15.27;4.30;;;9.70;99.90;;;;;;5069877;28;20178;-74
2023/03/31 06:23:59;;;;;;;10.38;3.65;;;9.90;99.90;;;;;;5069861;28;20049;-74
2023/03/31 06:26:26;;;;;;;12.90;4.07;;;9.90;99.90;;;;;;5069812;28;20052;-74
2023/03/31 06:28:52;;;;;;;12.68;4.03;;;9.70;99.90;;;;;;5069860;28;20120;-78
2023/03/31 06:31:20;;;;;;;10.27;3.45;;;10.20;99.90;;;;;;5070158;28;20124;-77
2023/03/31 06:33:46;;;;;;;11.45;4.20;;;9.70;99.90;;;;;;5070060;28;20127;-74
2023/03/31 06:36:14;;;;;;;8.98;3.30;;;9.70;99.90;;;;;;5069587;28;20049;-76
2023/03/31 06:38:40;;;;;;;10.88;3.80;;;9.90;99.90;;;;;;5070088;28;20052;-75
2023/03/31 06:41:08;;;;;;;11.77;3.55;;;9.80;99.90;;;;;;5069376;28;20148;-74
2023/03/31 06:43:34;;;;;;;7.93;3.30;;;9.70;99.90;;;;;;5069954;28;20047;-75
2023/03/31 06:46:00;;;;;;;10.90;3.33;;;9.90;99.90;;;;;;5050484;28;20056;-74
2023/03/31 06:48:26;;;;;;;9.95;2.90;;;9.80;99.90;;;;;;5064911;28;20045;-76
2023/03/31 06:50:53;;;;;;;10.73;3.80;;;9.80;99.90;;;;;;5049478;28;20056;-74
2023/03/31 06:53:20;;;;;;;9.93;2.60;;;9.80;99.90;;;;;;5049605;28;20049;-74
2023/03/31 06:55:46;;;;;;;6.20;2.78;;;9.80;99.90;;;;;;5031647;28;20052;-75
2023/03/31 06:58:12;;;;;;;9.23;3.20;;;10.00;99.90;;;;;;5049538;28;20052;-76
2023/03/31 07:00:38;;;;;;;9.20;3.10;;;9.70;99.90;;;;;;5054648;28;20098;-76
2023/03/31 07:03:05;;;;;;;8.57;3.05;;;10.40;99.90;;;;;;5069417;28;20399;-75
2023/03/31 07:05:31;;;;;;;8.85;2.88;;;9.80;99.90;;;;;;5034238;28;20767;-74
2023/03/31 07:07:58;;;;;;;8.05;2.80;;;9.90;99.90;;;;;;5068960;28;20040;-74
2023/03/31 07:10:26;;;;;;;7.55;2.88;;;10.20;99.90;;;;;;5068886;28;20051;-75
2023/03/31 07:12:52;;;;;;;8.23;3.00;;;9.90;99.90;;;;;;5059382;28;20099;-74
2023/03/31 07:15:18;;;;;;;6.70;2.70;;;9.80;99.90;;;;;;5049421;28;20049;-75
2023/03/31 07:17:44;;;;;;;9.00;3.00;;;9.80;99.90;;;;;;5046375;28;20111;-73
2023/03/31 07:20:11;;;;;;;8.38;2.92;;;9.80;99.90;;;;;;5058181;28;20059;-74
2023/03/31 07:22:40;;;;;;;10.93;3.40;;;9.80;99.90;;;;;;5051185;28;20495;-75
2023/03/31 07:25:06;;;;;;;7.30;3.40;;;9.80;99.90;;;;;;5051418;28;20044;-78
2023/03/31 07:27:32;;;;;;;9.70;4.05;;;9.80;99.90;;;;;;5069483;28;20052;-76
2023/03/31 07:29:58;;;;;;;8.55;3.47;;;9.80;99.90;;;;;;5069795;28;20043;-75
2023/03/31 07:32:23;;;;;;;10.32;3.22;;;10.00;99.90;;;;;;5072337;28;20044;-74
2023/03/31 07:34:49;;;;;;;9.48;3.20;;;10.00;99.90;;;;;;5070314;28;20055;-73
2023/03/31 07:37:15;;;;;;;9.35;3.30;;;9.80;99.90;;;;;;5034429;28;20408;-76
2023/03/31 07:39:41;;;;;;;8.45;3.00;;;9.90;99.90;;;;;;5041612;28;20075;-74
2023/03/31 07:42:06;;;;;;;9.23;3.45;;;9.90;99.90;;;;;;5072879;28;20094;-75
2023/03/31 07:44:36;;;;;;;9.32;2.95;;;10.00;99.90;;;;;;5072774;28;20597;-75
2023/03/31 07:47:04;;;;;;;9.13;2.70;;;9.90;99.90;;;;;;5071888;28;20084;-76
2023/03/31 07:49:34;;;;;;;7.20;2.60;;;9.90;99.90;;;;;;5072445;28;20040;-77
2023/03/31 07:52:01;;;;;;;7.60;2.70;;;9.90;99.90;;;;;;5071953;28;20044;-77
2023/03/31 07:54:27;;;;;;;8.00;2.53;;;9.90;99.90;;;;;;5072470;28;20048;-75
2023/03/31 07:56:53;;;;;;;7.28;2.45;;;9.90;99.90;;;;;;5072672;28;20727;-75
2023/03/31 07:59:19;;;;;;;7.28;2.75;;;10.20;99.90;;;;;;5072755;28;20049;-75
2023/03/31 08:01:45;;;;;;;6.13;2.40;;;10.60;99.90;;;;;;5072669;28;20082;-76
2023/03/31 08:04:13;;;;;;;6.75;3.00;;;10.20;99.90;;;;;;5072674;28;20415;-76
2023/03/31 08:06:39;;;;;;;5.47;2.53;;;10.00;99.90;;;;;;5071835;28;20059;-75
2023/03/31 08:09:06;;;;;;;8.20;2.60;;;9.90;99.90;;;;;;5072449;28;20539;-77
2023/03/31 08:11:32;;;;;;;8.00;2.55;;;9.90;99.90;;;;;;5072577;28;20052;-75
2023/03/31 08:13:58;;;;;;;9.10;2.70;;;10.00;99.90;;;;;;5072231;28;20049;-77
2023/03/31 08:16:24;;;;;;;7.88;2.53;;;10.20;99.90;;;;;;5071946;28;20040;-77
2023/03/31 08:18:49;;;;;;;7.97;2.30;;;10.30;99.90;;;;;;5036495;28;20097;-78
2023/03/31 08:21:15;;;;;;;8.90;2.35;;;10.00;99.90;;;;;;5072102;28;20048;-77
2023/03/31 08:23:41;;;;;;;7.28;2.65;;;10.20;99.90;;;;;;5072028;28;20448;-79
2023/03/31 08:26:09;;;;;;;12.30;3.10;;;10.00;99.90;;;;;;5072221;28;20039;-79
2023/03/31 08:28:35;;;;;;;8.23;2.35;;;10.00;99.90;;;;;;5072126;28;20134;-76
2023/03/31 08:31:06;;;;;;;10.05;2.63;;;10.10;99.90;;;;;;5071999;28;20037;-75
2023/03/31 08:33:32;;;;;;;10.77;2.80;;;10.00;99.90;;;;;;5071782;28;20480;-77
2023/03/31 08:36:06;;;;;;;7.80;2.25;;;10.10;99.90;;;;;;5071878;28;20082;-78
2023/03/31 08:38:32;;;;;;;9.60;2.60;;;10.10;99.90;;;;;;5072203;28;20057;-77
2023/03/31 08:41:00;;;;;;;9.50;2.90;;;10.10;99.90;;;;;;5072062;28;20040;-76
2023/03/31 08:43:32;;;;;;;5.63;2.40;;;10.10;99.90;;;;;;5048930;28;20094;-75
2023/03/31 08:45:58;;;;;;;10.40;2.17;;;10.10;99.90;;;;;;5070920;28;20628;-75
2023/03/31 08:48:31;;;;;;;7.40;2.75;;;10.10;99.90;;;;;;5068114;28;20093;-76
2023/03/31 08:51:21;;;;;;;7.97;2.15;;;10.10;99.90;;;;;;5069744;28;20109;-76
2023/03/31 08:53:54;;;;;;;7.28;2.30;;;10.10;99.90;;;;;;5069610;28;20131;-75
2023/03/31 08:56:21;;;;;;;9.93;2.40;;;10.10;99.90;;;;;;5058108;28;20048;-75
2023/03/31 08:58:51;;;;;;;10.90;2.92;;;10.10;99.90;;;;;;5017564;28;20146;-76
2023/03/31 09:01:22;;;;;;;8.43;2.25;;;10.20;99.90;;;;;;5071197;28;20045;-76
2023/03/31 09:04:05;;;;;;;11.23;2.97;;;10.20;99.90;;;;;;5071660;28;20053;-76
2023/03/31 09:06:41;;;;;;;7.28;2.38;;;10.20;99.90;;;;;;5071633;28;20151;-76
2023/03/31 09:09:14;;;;;;;16.60;2.60;;;10.20;99.90;;;;;;5067363;28;20040;-77
2023/03/31 09:11:49;;;;;;;9.07;2.38;;;10.70;99.90;;;;;;5061820;28;20040;-75
2023/03/31 09:14:25;;;;;;;13.18;2.90;;;10.30;99.90;;;;;;5050892;28;20064;-76
2023/03/31 09:16:59;;;;;;;13.25;2.90;;;10.40;99.90;;;;;;5069132;28;20486;-76
2023/03/31 09:19:47;;;;;;;12.43;3.10;;;10.50;99.90;;;;;;5070686;28;20146;-78
2023/03/31 09:22:21;;;;;;;10.38;2.92;;;10.50;99.90;;;;;;5052890;28;20052;-76
2023/03/31 09:24:55;;;;;;;9.40;2.60;;;10.50;99.90;;;;;;5070621;28;20076;-76
2023/03/31 09:27:26;;;;;;;8.88;3.00;;;10.50;99.90;;;;;;5052514;28;20048;-76
2023/03/31 09:29:57;;;;;;;13.32;2.97;;;10.80;99.90;;;;;;5070737;28;20119;-76
2023/03/31 09:32:29;;;;;;;9.82;2.80;;;10.60;99.90;;;;;;5070622;28;20434;-76
2023/03/31 09:35:00;;;;;;;11.57;2.83;;;10.90;99.90;;;;;;5070312;28;20829;-77
2023/03/31 09:37:31;;;;;;;7.78;2.83;;;11.00;99.90;;;;;;5070837;28;20666;-78
2023/03/31 09:40:06;;;;;;;10.93;2.97;;;11.20;99.90;;;;;;5070274;28;20056;-79
2023/03/31 09:42:33;;;;;;;13.40;3.47;;;10.80;99.90;;;;;;5070500;28;20087;-80
2023/03/31 09:44:59;;;;;;;11.70;3.13;;;10.90;99.90;;;;;;5070352;28;20582;-77
2023/03/31 09:47:37;;;;;;;12.32;3.33;;;11.00;99.90;;;;;;5056057;28;20157;-77
2023/03/31 09:50:05;;;;;;;10.30;2.65;;;11.10;99.90;;;;;;5062850;28;20076;-74
2023/03/31 09:52:45;;;;;;;9.02;2.63;;;11.10;99.90;;;;;;5036764;28;20052;-76
2023/03/31 09:55:41;;;;;;;8.35;2.70;;;11.10;99.90;;;;;;5053580;28;20376;-77
2023/03/31 09:58:12;;;;;;;6.38;2.30;;;11.10;99.90;;;;;;5070197;28;20074;-77
2023/03/31 10:00:41;;;;;;;9.80;2.60;;;11.10;99.90;;;;;;5070480;28;20048;-76
2023/03/31 10:03:11;;;;;;;7.20;2.42;;;11.20;99.90;;;;;;5052366;28;20580;-74
2023/03/31 10:05:47;;;;;;;7.10;2.92;;;11.20;99.90;;;;;;5070012;28;20728;-75
2023/03/31 10:08:16;;;;;;;9.00;2.28;;;11.20;99.90;;;;;;5070169;28;20123;-75
2023/03/31 10:11:16;;;;;;;8.02;2.90;;;11.20;99.90;;;;;;5051123;28;20044;-76
2023/03/31 10:13:48;;;;;;;7.10;2.50;;;11.20;99.90;;;;;;5064315;28;20059;-76
2023/03/31 10:16:46;;;;;;;7.90;2.28;;;11.10;99.90;;;;;;5067080;28;20201;-76
2023/03/31 10:19:21;;;;;;;6.55;2.50;;;11.20;99.90;;;;;;5043710;28;20107;-76
2023/03/31 10:21:54;;;;;;;9.48;2.90;;;11.20;99.90;;;;;;5054283;28;20438;-75
2023/03/31 10:24:20;;;;;;;10.30;2.67;;;11.10;99.90;;;;;;5050093;28;20044;-74
2023/03/31 10:26:51;;;;;;;7.95;2.70;;;11.20;99.90;;;;;;5069691;28;20475;-74
2023/03/31 10:29:24;;;;;;;9.00;2.55;;;11.20;99.90;;;;;;5051851;28;20067;-75
2023/03/31 10:31:50;;;;;;;7.60;2.20;;;11.10;99.90;;;;;;5069776;28;20072;-74
2023/03/31 10:34:17;;;;;;;8.65;2.53;;;11.40;99.90;;;;;;5069262;28;20061;-76
2023/03/31 10:36:48;;;;;;;6.80;2.58;;;11.30;99.90;;;;;;5070044;28;20152;-74
2023/03/31 10:39:16;;;;;;;8.02;1.92;;;11.30;99.90;;;;;;5051741;28;20055;-76
2023/03/31 10:41:42;;;;;;;5.47;2.03;;;11.60;99.90;;;;;;5069389;28;20545;-75
2023/03/31 10:44:32;;;;;;;9.48;2.88;;;11.50;99.90;;;;;;5069769;28;20124;-74
2023/03/31 10:47:20;;;;;;;6.82;2.28;;;11.50;99.90;;;;;;5069514;28;20537;-76
2023/03/31 10:49:49;;;;;;;7.97;2.55;;;11.70;99.90;;;;;;5069786;28;20076;-75
2023/03/31 10:52:24;;;;;;;10.52;2.45;;;11.70;99.90;;;;;;5069718;28;20057;-77
2023/03/31 10:54:56;;;;;;;;;;;11.80;99.90;;;;;;5070165;28;20052;-74
2023/03/31 10:57:35;;;;;;;6.45;2.00;;;11.90;99.90;;;;;;5069246;28;20390;-74
2023/03/31 11:00:15;;;;;;;8.50;2.40;;;11.90;99.90;;;;;;5069544;28;20053;-74
2023/03/31 11:03:03;;;;;;;8.50;2.60;;;12.00;99.90;;;;;;5051349;28;20052;-75
2023/03/31 11:05:34;;;;;;;5.35;2.17;;;12.10;99.90;;;;;;5070337;28;20423;-73
2023/03/31 11:08:21;;;;;;;9.43;2.28;;;12.10;99.90;;;;;;5071107;28;20040;-75
2023/03/31 11:11:15;;;;;;;7.13;2.38;;;12.20;99.90;;;;;;5039198;28;20060;-74
2023/03/31 11:13:55;;;;;;;10.57;3.35;;;12.30;99.90;;;;;;5072348;28;20376;-75
2023/03/31 11:16:43;;;;;;;11.32;2.33;;;12.40;99.90;;;;;;5053454;28;20076;-77
2023/03/31 11:19:36;;;;;;;10.05;2.28;;;12.50;99.90;;;;;;5064837;28;20056;-76
2023/03/31 11:22:02;;;;;;;8.93;2.35;;;12.60;99.90;;;;;;5049942;28;20055;-75
2023/03/31 11:24:33;;;;;;;9.70;2.70;;;12.60;99.90;;;;;;5035185;28;20399;-75
2023/03/31 11:27:13;;;;;;;11.25;2.53;;;12.60;99.90;;;;;;5034884;28;20051;-76
2023/03/31 11:29:53;;;;;;;9.45;2.33;;;12.70;99.90;;;;;;5035194;28;20049;-76
2023/03/31 11:32:28;;;;;;;7.68;2.30;;;12.80;99.90;;;;;;5035038;28;20060;-77
2023/03/31 11:34:54;;;;;;;10.10;2.45;;;12.80;99.90;;;;;;5035294;28;20479;-76
2023/03/31 11:37:30;;;;;;;7.88;2.22;;;13.20;99.90;;;;;;5033982;28;20055;-76
2023/03/31 11:40:08;;;;;;;11.27;1.92;;;12.80;99.90;;;;;;5072760;28;20530;-76
2023/03/31 11:43:01;;;;;;;10.60;2.30;;;12.70;99.90;;;;;;5054449;28;20044;-76
2023/03/31 11:46:02;;;;;;;8.07;2.00;;;12.80;99.90;;;;;;5072223;28;20048;-76
2023/03/31 11:48:58;;;;;;;8.77;2.30;;;12.70;99.90;;;;;;5072381;28;20072;-76
2023/03/31 11:51:38;;;;;;;6.70;1.90;;;12.70;99.90;;;;;;5064697;28;20060;-75
2023/03/31 11:54:10;;;;;;;8.45;2.00;;;12.60;99.90;;;;;;5069113;28;20554;-75
2023/03/31 11:56:38;;;;;;;8.82;2.20;;;12.40;99.90;;;;;;5037728;28;20040;-75
2023/03/31 11:59:06;;;;;;;8.50;2.22;;;12.40;99.90;;;;;;5072022;28;20228;-75
2023/03/31 12:01:56;;;;;;;11.10;2.35;;;12.40;99.90;;;;;;5072648;28;20127;-74
2023/03/31 12:04:29;;;;;;;7.72;2.00;;;12.40;99.90;;;;;;4974170;28;20105;-75
2023/03/31 12:07:01;;;;;;;9.10;2.25;;;12.30;99.90;;;;;;4990028;28;20545;-74
2023/03/31 12:10:07;;;;;;;8.05;2.50;;;12.30;99.90;;;;;;4962660;28;20058;-76
2023/03/31 12:12:38;;;;;;;7.75;2.33;;;12.30;99.90;;;;;;4913416;29;20062;-75
2023/03/31 12:15:28;;;;;;;12.02;2.25;;;12.30;99.90;;;;;;4913346;29;20169;-74
2023/03/31 12:18:19;;;;;;;7.43;1.90;;;12.30;99.90;;;;;;4912085;29;20060;-74
2023/03/31 12:20:58;;;;;;;6.60;1.88;;;12.30;99.90;;;;;;4913660;29;20055;-74
2023/03/31 12:23:28;;;;;;;10.52;1.98;;;12.30;99.90;;;;;;4912684;29;20095;-73
2023/03/31 12:26:20;;;;;;;11.45;2.13;;;12.30;99.90;;;;;;4897007;29;20086;-79
2023/03/31 12:28:47;;;;;;;10.15;2.63;;;12.20;99.90;;;;;;4891224;29;20528;-75
2023/03/31 12:31:22;;;;;;;8.88;2.10;;;12.50;99.90;;;;;;4897131;29;20056;-75
2023/03/31 12:34:11;;;;;;;9.32;2.55;;;12.60;99.90;;;;;;4913090;29;20052;-75
2023/03/31 12:36:47;;;;;;;9.82;2.40;;;12.70;99.90;;;;;;4893832;29;20056;-75
2023/03/31 12:39:54;;;;;;;13.60;2.90;;;12.70;99.90;;;;;;4894341;29;20060;-76
2023/03/31 12:42:49;;;;;;;16.60;2.90;;;12.80;99.90;;;;;;4881648;29;20067;-75
2023/03/31 12:45:25;;;;;;;14.00;2.47;;;12.90;99.90;;;;;;4878547;29;20068;-77
2023/03/31 12:48:04;;;;;;;10.20;2.60;;;13.00;99.90;;;;;;4914500;29;20115;-78
2023/03/31 12:50:57;;;;;;;9.45;2.67;;;13.00;99.90;;;;;;4947952;28;20073;-78
2023/03/31 12:53:25;;;;;;;9.93;2.90;;;13.00;99.90;;;;;;4970470;28;20101;-77
2023/03/31 12:55:56;;;;;;;11.20;2.63;;;13.00;99.90;;;;;;4970465;28;20053;-80
2023/03/31 12:58:33;;;;;;;9.60;2.40;;;13.00;99.90;;;;;;4959930;28;20043;-79
2023/03/31 13:01:21;;;;;;;9.52;2.70;;;13.00;99.90;;;;;;4950545;29;20090;-76
2023/03/31 13:03:53;;;;;;;9.82;2.25;;;13.00;99.90;;;;;;4950868;29;20573;-79
2023/03/31 13:06:25;;;;;;;8.57;2.80;;;13.10;99.90;;;;;;4950716;29;20546;-79
2023/03/31 13:08:55;;;;;;;8.57;2.50;;;13.20;99.90;;;;;;4934166;29;20641;-78
2023/03/31 13:11:37;;;;;;;9.77;2.88;;;13.20;99.90;;;;;;4934316;28;20061;-76